MT-0002 weather

CLOSED Safi
Luqa, Malta

Public forecast

Using degrees Celsius for public forecast. Weather courtesy of forecast.io.

METAR (pilot weather report)

Closest report is Malta International Airport, 1.3 nm (2.5 km) NW. Retrieved 2019/02/22 01:15 UTC (23 minutes ago):

LMML 220115Z 29005KT 9999 FEW023 09/08 Q1026 NOSIG

TAF (pilot weather forecast)

Forecast is more than 12 hours old.

Closest forecast is Malta International Airport, 1.3 nm (2.5 km) NW. Retrieved 2019/02/20 06:56 UTC (2 days ago):

TAF LMML 200500Z 2006/2106 VRB06KT 9999 FEW025 SCT040